sensor_id;sensor_type;location;lat;lon;timestamp;P1;durP1;ratioP1;P2;durP2;ratioP2
13218;SDS011;6674;49.152;11.918;2024-02-21T00:01:01;6.20;;;3.20;;
13218;SDS011;6674;49.152;11.918;2024-02-21T00:03:29;7.47;;;3.73;;
13218;SDS011;6674;49.152;11.918;2024-02-21T00:05:56;8.77;;;3.97;;
13218;SDS011;6674;49.152;11.918;2024-02-21T00:08:23;8.17;;;3.70;;
13218;SDS011;6674;49.152;11.918;2024-02-21T00:10:49;7.17;;;3.53;;
13218;SDS011;6674;49.152;11.918;2024-02-21T00:13:16;8.80;;;3.93;;
13218;SDS011;6674;49.152;11.918;2024-02-21T00:15:43;8.73;;;3.67;;
13218;SDS011;6674;49.152;11.918;2024-02-21T00:18:09;6.63;;;3.20;;
13218;SDS011;6674;49.152;11.918;2024-02-21T00:20:37;7.20;;;3.40;;
13218;SDS011;6674;49.152;11.918;2024-02-21T00:23:04;8.87;;;4.03;;
13218;SDS011;6674;49.152;11.918;2024-02-21T00:25:30;7.87;;;3.73;;
13218;SDS011;6674;49.152;11.918;2024-02-21T00:27:57;7.57;;;3.87;;
13218;SDS011;6674;49.152;11.918;2024-02-21T00:30:23;7.00;;;3.43;;
13218;SDS011;6674;49.152;11.918;2024-02-21T00:32:50;5.07;;;3.40;;
13218;SDS011;6674;49.152;11.918;2024-02-21T00:35:16;7.50;;;3.50;;
13218;SDS011;6674;49.152;11.918;2024-02-21T00:37:44;9.37;;;4.17;;
13218;SDS011;6674;49.152;11.918;2024-02-21T00:40:10;8.37;;;3.50;;
13218;SDS011;6674;49.152;11.918;2024-02-21T00:42:38;8.13;;;3.70;;
13218;SDS011;6674;49.152;11.918;2024-02-21T00:45:05;7.40;;;3.73;;
13218;SDS011;6674;49.152;11.918;2024-02-21T00:47:31;6.07;;;3.47;;
13218;SDS011;6674;49.152;11.918;2024-02-21T00:49:58;5.90;;;3.47;;
13218;SDS011;6674;49.152;11.918;2024-02-21T00:52:24;6.87;;;3.53;;
13218;SDS011;6674;49.152;11.918;2024-02-21T00:54:52;8.30;;;3.80;;
13218;SDS011;6674;49.152;11.918;2024-02-21T00:57:19;8.73;;;3.77;;
13218;SDS011;6674;49.152;11.918;2024-02-21T00:59:45;5.97;;;3.40;;
13218;SDS011;6674;49.152;11.918;2024-02-21T01:02:11;6.57;;;3.87;;
13218;SDS011;6674;49.152;11.918;2024-02-21T01:04:38;6.77;;;3.60;;
13218;SDS011;6674;49.152;11.918;2024-02-21T01:07:04;6.50;;;3.57;;
13218;SDS011;6674;49.152;11.918;2024-02-21T01:09:31;7.60;;;3.63;;
13218;SDS011;6674;49.152;11.918;2024-02-21T01:11:59;7.73;;;3.80;;
13218;SDS011;6674;49.152;11.918;2024-02-21T01:14:25;9.13;;;3.80;;
13218;SDS011;6674;49.152;11.918;2024-02-21T01:16:51;8.90;;;3.40;;
13218;SDS011;6674;49.152;11.918;2024-02-21T01:19:18;6.03;;;3.40;;
13218;SDS011;6674;49.152;11.918;2024-02-21T01:21:45;7.90;;;3.60;;
13218;SDS011;6674;49.152;11.918;2024-02-21T01:24:12;7.57;;;3.90;;
13218;SDS011;6674;49.152;11.918;2024-02-21T01:26:40;7.60;;;3.60;;
13218;SDS011;6674;49.152;11.918;2024-02-21T01:29:08;8.30;;;3.70;;
13218;SDS011;6674;49.152;11.918;2024-02-21T01:31:35;6.83;;;3.20;;
13218;SDS011;6674;49.152;11.918;2024-02-21T01:34:02;6.23;;;3.43;;
13218;SDS011;6674;49.152;11.918;2024-02-21T01:36:28;5.90;;;3.07;;
13218;SDS011;6674;49.152;11.918;2024-02-21T01:38:55;5.43;;;3.13;;
13218;SDS011;6674;49.152;11.918;2024-02-21T01:41:21;10.47;;;4.17;;
13218;SDS011;6674;49.152;11.918;2024-02-21T01:43:48;6.97;;;3.30;;
13218;SDS011;6674;49.152;11.918;2024-02-21T01:46:15;5.83;;;3.40;;
13218;SDS011;6674;49.152;11.918;2024-02-21T01:48:42;6.87;;;3.70;;
13218;SDS011;6674;49.152;11.918;2024-02-21T01:51:10;7.93;;;3.80;;
13218;SDS011;6674;49.152;11.918;2024-02-21T01:53:45;5.33;;;3.50;;
13218;SDS011;6674;49.152;11.918;2024-02-21T01:56:12;10.20;;;3.87;;
13218;SDS011;6674;49.152;11.918;2024-02-21T01:58:39;9.47;;;3.87;;
13218;SDS011;6674;49.152;11.918;2024-02-21T02:01:06;7.50;;;3.77;;
13218;SDS011;6674;49.152;11.918;2024-02-21T02:03:34;7.70;;;4.00;;
13218;SDS011;6674;49.152;11.918;2024-02-21T02:06:01;7.67;;;3.70;;
13218;SDS011;6674;49.152;11.918;2024-02-21T02:08:28;7.43;;;4.00;;
13218;SDS011;6674;49.152;11.918;2024-02-21T02:10:54;7.47;;;3.93;;
13218;SDS011;6674;49.152;11.918;2024-02-21T02:13:21;5.90;;;3.53;;
13218;SDS011;6674;49.152;11.918;2024-02-21T02:15:48;9.83;;;3.87;;
13218;SDS011;6674;49.152;11.918;2024-02-21T02:18:15;7.97;;;3.90;;
13218;SDS011;6674;49.152;11.918;2024-02-21T02:20:43;13.40;;;4.20;;
13218;SDS011;6674;49.152;11.918;2024-02-21T02:23:11;7.53;;;3.90;;
13218;SDS011;6674;49.152;11.918;2024-02-21T02:25:39;8.43;;;3.80;;
13218;SDS011;6674;49.152;11.918;2024-02-21T02:28:06;7.10;;;3.83;;
13218;SDS011;6674;49.152;11.918;2024-02-21T02:30:32;6.63;;;3.80;;
13218;SDS011;6674;49.152;11.918;2024-02-21T02:33:01;9.07;;;3.70;;
13218;SDS011;6674;49.152;11.918;2024-02-21T02:35:28;7.63;;;3.80;;
13218;SDS011;6674;49.152;11.918;2024-02-21T02:37:55;7.40;;;3.80;;
13218;SDS011;6674;49.152;11.918;2024-02-21T02:40:21;7.47;;;4.20;;
13218;SDS011;6674;49.152;11.918;2024-02-21T02:42:50;9.13;;;3.93;;
13218;SDS011;6674;49.152;11.918;2024-02-21T02:45:18;8.13;;;3.93;;
13218;SDS011;6674;49.152;11.918;2024-02-21T02:47:47;9.47;;;4.20;;
13218;SDS011;6674;49.152;11.918;2024-02-21T02:50:13;7.17;;;3.80;;
13218;SDS011;6674;49.152;11.918;2024-02-21T02:52:39;8.30;;;4.17;;
13218;SDS011;6674;49.152;11.918;2024-02-21T02:55:06;9.93;;;4.13;;
13218;SDS011;6674;49.152;11.918;2024-02-21T02:57:33;8.00;;;4.30;;
13218;SDS011;6674;49.152;11.918;2024-02-21T03:00:00;6.77;;;3.60;;
13218;SDS011;6674;49.152;11.918;2024-02-21T03:02:29;9.20;;;4.13;;
13218;SDS011;6674;49.152;11.918;2024-02-21T03:04:56;7.93;;;4.03;;
13218;SDS011;6674;49.152;11.918;2024-02-21T03:07:23;5.90;;;3.73;;
13218;SDS011;6674;49.152;11.918;2024-02-21T03:09:50;7.93;;;4.03;;
13218;SDS011;6674;49.152;11.918;2024-02-21T03:12:17;7.63;;;3.83;;
13218;SDS011;6674;49.152;11.918;2024-02-21T03:14:49;7.93;;;3.97;;
13218;SDS011;6674;49.152;11.918;2024-02-21T03:17:17;5.57;;;3.50;;
13218;SDS011;6674;49.152;11.918;2024-02-21T03:19:43;8.57;;;3.80;;
13218;SDS011;6674;49.152;11.918;2024-02-21T03:22:10;6.97;;;3.77;;
13218;SDS011;6674;49.152;11.918;2024-02-21T03:24:37;8.43;;;4.20;;
13218;SDS011;6674;49.152;11.918;2024-02-21T03:27:04;7.93;;;4.30;;
13218;SDS011;6674;49.152;11.918;2024-02-21T03:29:30;9.67;;;4.00;;
13218;SDS011;6674;49.152;11.918;2024-02-21T03:31:56;9.00;;;4.03;;
13218;SDS011;6674;49.152;11.918;2024-02-21T03:34:24;8.30;;;4.20;;
13218;SDS011;6674;49.152;11.918;2024-02-21T03:36:51;9.60;;;4.63;;
13218;SDS011;6674;49.152;11.918;2024-02-21T03:39:17;10.87;;;4.83;;
13218;SDS011;6674;49.152;11.918;2024-02-21T03:41:43;7.77;;;4.40;;
13218;SDS011;6674;49.152;11.918;2024-02-21T03:44:11;11.30;;;4.27;;
13218;SDS011;6674;49.152;11.918;2024-02-21T03:46:37;9.73;;;4.17;;
13218;SDS011;6674;49.152;11.918;2024-02-21T03:49:04;8.47;;;4.40;;
13218;SDS011;6674;49.152;11.918;2024-02-21T03:51:32;7.20;;;4.00;;
13218;SDS011;6674;49.152;11.918;2024-02-21T03:53:58;7.97;;;4.00;;
13218;SDS011;6674;49.152;11.918;2024-02-21T03:56:25;9.00;;;4.17;;
13218;SDS011;6674;49.152;11.918;2024-02-21T03:58:51;11.70;;;4.30;;
13218;SDS011;6674;49.152;11.918;2024-02-21T04:01:18;8.33;;;4.37;;
13218;SDS011;6674;49.152;11.918;2024-02-21T04:03:45;5.97;;;3.70;;
13218;SDS011;6674;49.152;11.918;2024-02-21T04:06:11;6.53;;;3.97;;
13218;SDS011;6674;49.152;11.918;2024-02-21T04:08:39;8.50;;;4.30;;
13218;SDS011;6674;49.152;11.918;2024-02-21T04:11:06;9.93;;;4.20;;
13218;SDS011;6674;49.152;11.918;2024-02-21T04:13:32;9.70;;;4.27;;
13218;SDS011;6674;49.152;11.918;2024-02-21T04:15:59;7.60;;;4.00;;
13218;SDS011;6674;49.152;11.918;2024-02-21T04:18:26;5.00;;;3.43;;
13218;SDS011;6674;49.152;11.918;2024-02-21T04:20:52;8.20;;;3.57;;
13218;SDS011;6674;49.152;11.918;2024-02-21T04:23:19;5.80;;;3.73;;
13218;SDS011;6674;49.152;11.918;2024-02-21T04:25:46;7.00;;;4.03;;
13218;SDS011;6674;49.152;11.918;2024-02-21T04:28:15;6.53;;;3.03;;
13218;SDS011;6674;49.152;11.918;2024-02-21T04:30:41;7.37;;;3.60;;
13218;SDS011;6674;49.152;11.918;2024-02-21T04:33:08;7.90;;;3.30;;
13218;SDS011;6674;49.152;11.918;2024-02-21T04:35:35;4.40;;;3.13;;
13218;SDS011;6674;49.152;11.918;2024-02-21T04:38:02;7.30;;;3.53;;
13218;SDS011;6674;49.152;11.918;2024-02-21T04:40:29;6.47;;;3.40;;
13218;SDS011;6674;49.152;11.918;2024-02-21T04:42:58;9.20;;;4.30;;
13218;SDS011;6674;49.152;11.918;2024-02-21T04:45:24;5.40;;;3.37;;
13218;SDS011;6674;49.152;11.918;2024-02-21T04:47:51;8.10;;;3.77;;
13218;SDS011;6674;49.152;11.918;2024-02-21T04:50:17;6.47;;;4.23;;
13218;SDS011;6674;49.152;11.918;2024-02-21T04:52:44;6.97;;;3.67;;
13218;SDS011;6674;49.152;11.918;2024-02-21T04:55:10;8.27;;;4.47;;
13218;SDS011;6674;49.152;11.918;2024-02-21T04:57:36;8.23;;;4.50;;
13218;SDS011;6674;49.152;11.918;2024-02-21T05:00:05;7.70;;;4.27;;
13218;SDS011;6674;49.152;11.918;2024-02-21T05:02:31;7.03;;;4.33;;
13218;SDS011;6674;49.152;11.918;2024-02-21T05:04:58;8.00;;;4.17;;
13218;SDS011;6674;49.152;11.918;2024-02-21T05:07:24;9.13;;;4.47;;
13218;SDS011;6674;49.152;11.918;2024-02-21T05:09:50;8.57;;;4.30;;
13218;SDS011;6674;49.152;11.918;2024-02-21T05:12:17;10.97;;;4.60;;
13218;SDS011;6674;49.152;11.918;2024-02-21T05:14:44;7.77;;;4.13;;
13218;SDS011;6674;49.152;11.918;2024-02-21T05:17:12;9.03;;;4.70;;
13218;SDS011;6674;49.152;11.918;2024-02-21T05:19:39;8.27;;;4.53;;
13218;SDS011;6674;49.152;11.918;2024-02-21T05:22:05;9.17;;;4.40;;
13218;SDS011;6674;49.152;11.918;2024-02-21T05:24:31;7.53;;;4.30;;
13218;SDS011;6674;49.152;11.918;2024-02-21T05:26:59;9.53;;;4.77;;
13218;SDS011;6674;49.152;11.918;2024-02-21T05:29:25;8.03;;;4.50;;
13218;SDS011;6674;49.152;11.918;2024-02-21T05:31:55;9.90;;;4.37;;
13218;SDS011;6674;49.152;11.918;2024-02-21T05:34:23;8.03;;;3.93;;
13218;SDS011;6674;49.152;11.918;2024-02-21T05:36:50;10.47;;;4.23;;
13218;SDS011;6674;49.152;11.918;2024-02-21T05:39:17;7.27;;;4.17;;
13218;SDS011;6674;49.152;11.918;2024-02-21T05:41:43;4.97;;;3.70;;
13218;SDS011;6674;49.152;11.918;2024-02-21T05:44:10;9.67;;;4.40;;
13218;SDS011;6674;49.152;11.918;2024-02-21T05:46:36;8.97;;;4.30;;
13218;SDS011;6674;49.152;11.918;2024-02-21T05:49:03;10.57;;;4.30;;
13218;SDS011;6674;49.152;11.918;2024-02-21T05:51:33;8.20;;;4.30;;
13218;SDS011;6674;49.152;11.918;2024-02-21T05:54:01;9.00;;;4.30;;
13218;SDS011;6674;49.152;11.918;2024-02-21T05:56:28;7.83;;;4.10;;
13218;SDS011;6674;49.152;11.918;2024-02-21T05:58:54;8.63;;;4.03;;
13218;SDS011;6674;49.152;11.918;2024-02-21T06:01:21;7.00;;;3.73;;
13218;SDS011;6674;49.152;11.918;2024-02-21T06:03:47;8.17;;;4.00;;
13218;SDS011;6674;49.152;11.918;2024-02-21T06:06:14;9.70;;;4.00;;
13218;SDS011;6674;49.152;11.918;2024-02-21T06:08:42;8.90;;;4.20;;
13218;SDS011;6674;49.152;11.918;2024-02-21T06:11:08;7.53;;;4.00;;
13218;SDS011;6674;49.152;11.918;2024-02-21T06:13:37;7.33;;;3.97;;
13218;SDS011;6674;49.152;11.918;2024-02-21T06:16:04;6.70;;;3.53;;
13218;SDS011;6674;49.152;11.918;2024-02-21T06:18:31;7.87;;;3.97;;
13218;SDS011;6674;49.152;11.918;2024-02-21T06:20:57;7.90;;;3.60;;
13218;SDS011;6674;49.152;11.918;2024-02-21T06:23:23;6.70;;;3.47;;
13218;SDS011;6674;49.152;11.918;2024-02-21T06:25:51;7.60;;;3.67;;
13218;SDS011;6674;49.152;11.918;2024-02-21T06:28:18;5.40;;;3.40;;
13218;SDS011;6674;49.152;11.918;2024-02-21T06:30:45;5.83;;;3.70;;
13218;SDS011;6674;49.152;11.918;2024-02-21T06:33:12;6.33;;;3.03;;
13218;SDS011;6674;49.152;11.918;2024-02-21T06:35:38;8.00;;;3.87;;
13218;SDS011;6674;49.152;11.918;2024-02-21T06:38:06;6.13;;;3.40;;
13218;SDS011;6674;49.152;11.918;2024-02-21T06:40:32;6.03;;;3.70;;
13218;SDS011;6674;49.152;11.918;2024-02-21T06:43:05;9.03;;;4.00;;
13218;SDS011;6674;49.152;11.918;2024-02-21T06:45:31;8.80;;;4.40;;
13218;SDS011;6674;49.152;11.918;2024-02-21T06:47:59;9.20;;;3.97;;
13218;SDS011;6674;49.152;11.918;2024-02-21T06:50:25;6.47;;;3.83;;
13218;SDS011;6674;49.152;11.918;2024-02-21T06:52:51;7.57;;;4.10;;
13218;SDS011;6674;49.152;11.918;2024-02-21T06:55:18;7.13;;;3.80;;
13218;SDS011;6674;49.152;11.918;2024-02-21T06:57:45;7.37;;;4.00;;
13218;SDS011;6674;49.152;11.918;2024-02-21T07:00:15;7.23;;;3.73;;
13218;SDS011;6674;49.152;11.918;2024-02-21T07:02:42;9.53;;;4.23;;
13218;SDS011;6674;49.152;11.918;2024-02-21T07:05:08;7.23;;;3.70;;
13218;SDS011;6674;49.152;11.918;2024-02-21T07:07:35;9.43;;;4.00;;
13218;SDS011;6674;49.152;11.918;2024-02-21T07:10:01;9.83;;;3.80;;
13218;SDS011;6674;49.152;11.918;2024-02-21T07:12:29;7.13;;;3.43;;
13218;SDS011;6674;49.152;11.918;2024-02-21T07:14:56;9.57;;;4.00;;
13218;SDS011;6674;49.152;11.918;2024-02-21T07:17:24;7.87;;;4.03;;
13218;SDS011;6674;49.152;11.918;2024-02-21T07:19:50;6.10;;;3.73;;
13218;SDS011;6674;49.152;11.918;2024-02-21T07:22:16;10.40;;;4.00;;
13218;SDS011;6674;49.152;11.918;2024-02-21T07:24:43;8.93;;;3.80;;
13218;SDS011;6674;49.152;11.918;2024-02-21T07:27:09;8.30;;;4.10;;
13218;SDS011;6674;49.152;11.918;2024-02-21T07:29:36;8.83;;;4.00;;
13218;SDS011;6674;49.152;11.918;2024-02-21T07:32:02;6.73;;;3.90;;
13218;SDS011;6674;49.152;11.918;2024-02-21T07:34:30;6.57;;;3.40;;
13218;SDS011;6674;49.152;11.918;2024-02-21T07:36:56;7.63;;;3.80;;
13218;SDS011;6674;49.152;11.918;2024-02-21T07:39:23;7.23;;;3.83;;
13218;SDS011;6674;49.152;11.918;2024-02-21T07:41:50;6.97;;;4.03;;
13218;SDS011;6674;49.152;11.918;2024-02-21T07:44:16;6.13;;;3.47;;
13218;SDS011;6674;49.152;11.918;2024-02-21T07:46:43;6.43;;;3.70;;
13218;SDS011;6674;49.152;11.918;2024-02-21T07:49:09;7.93;;;3.90;;
13218;SDS011;6674;49.152;11.918;2024-02-21T07:51:37;7.23;;;3.50;;
13218;SDS011;6674;49.152;11.918;2024-02-21T07:54:03;8.80;;;3.83;;
13218;SDS011;6674;49.152;11.918;2024-02-21T07:56:30;9.27;;;3.97;;
13218;SDS011;6674;49.152;11.918;2024-02-21T07:58:56;6.90;;;3.60;;
13218;SDS011;6674;49.152;11.918;2024-02-21T08:01:23;10.33;;;4.07;;
13218;SDS011;6674;49.152;11.918;2024-02-21T08:03:49;8.23;;;3.67;;
13218;SDS011;6674;49.152;11.918;2024-02-21T08:06:16;8.03;;;3.67;;
13218;SDS011;6674;49.152;11.918;2024-02-21T08:08:44;6.60;;;3.47;;
13218;SDS011;6674;49.152;11.918;2024-02-21T08:11:11;6.10;;;3.67;;
13218;SDS011;6674;49.152;11.918;2024-02-21T08:13:37;8.73;;;3.70;;
13218;SDS011;6674;49.152;11.918;2024-02-21T08:16:03;9.67;;;3.90;;
13218;SDS011;6674;49.152;11.918;2024-02-21T08:18:30;5.93;;;3.37;;
13218;SDS011;6674;49.152;11.918;2024-02-21T08:20:56;7.87;;;3.97;;
13218;SDS011;6674;49.152;11.918;2024-02-21T08:23:23;8.07;;;4.00;;
13218;SDS011;6674;49.152;11.918;2024-02-21T08:25:50;9.87;;;3.70;;
13218;SDS011;6674;49.152;11.918;2024-02-21T08:28:18;9.83;;;3.77;;
13218;SDS011;6674;49.152;11.918;2024-02-21T08:30:45;7.87;;;3.50;;
13218;SDS011;6674;49.152;11.918;2024-02-21T08:33:13;9.97;;;3.53;;
13218;SDS011;6674;49.152;11.918;2024-02-21T08:35:39;5.67;;;3.53;;
13218;SDS011;6674;49.152;11.918;2024-02-21T08:38:07;6.57;;;2.93;;
13218;SDS011;6674;49.152;11.918;2024-02-21T08:40:33;8.30;;;3.50;;
13218;SDS011;6674;49.152;11.918;2024-02-21T08:43:01;5.80;;;3.13;;
13218;SDS011;6674;49.152;11.918;2024-02-21T08:45:28;7.40;;;2.87;;
13218;SDS011;6674;49.152;11.918;2024-02-21T08:47:55;6.93;;;3.17;;
13218;SDS011;6674;49.152;11.918;2024-02-21T08:50:21;6.80;;;3.17;;
13218;SDS011;6674;49.152;11.918;2024-02-21T08:52:47;5.90;;;2.67;;
13218;SDS011;6674;49.152;11.918;2024-02-21T08:55:14;5.40;;;3.17;;
13218;SDS011;6674;49.152;11.918;2024-02-21T08:57:40;7.23;;;2.97;;
13218;SDS011;6674;49.152;11.918;2024-02-21T09:00:09;6.10;;;3.17;;
13218;SDS011;6674;49.152;11.918;2024-02-21T09:02:36;5.10;;;2.53;;
13218;SDS011;6674;49.152;11.918;2024-02-21T09:05:04;7.17;;;3.40;;
13218;SDS011;6674;49.152;11.918;2024-02-21T09:07:31;4.50;;;2.60;;
13218;SDS011;6674;49.152;11.918;2024-02-21T09:09:58;6.70;;;3.17;;
13218;SDS011;6674;49.152;11.918;2024-02-21T09:12:24;5.93;;;2.93;;
13218;SDS011;6674;49.152;11.918;2024-02-21T09:14:50;6.20;;;3.20;;
13218;SDS011;6674;49.152;11.918;2024-02-21T09:17:18;6.40;;;2.60;;
13218;SDS011;6674;49.152;11.918;2024-02-21T09:19:45;5.70;;;2.77;;
13218;SDS011;6674;49.152;11.918;2024-02-21T09:22:12;7.07;;;3.33;;
13218;SDS011;6674;49.152;11.918;2024-02-21T09:24:38;10.13;;;3.13;;
13218;SDS011;6674;49.152;11.918;2024-02-21T09:27:05;7.53;;;3.10;;
13218;SDS011;6674;49.152;11.918;2024-02-21T09:29:32;5.67;;;2.73;;
13218;SDS011;6674;49.152;11.918;2024-02-21T09:32:00;5.73;;;2.47;;
13218;SDS011;6674;49.152;11.918;2024-02-21T09:34:29;6.13;;;2.83;;
13218;SDS011;6674;49.152;11.918;2024-02-21T09:36:55;4.23;;;2.40;;
13218;SDS011;6674;49.152;11.918;2024-02-21T09:39:22;6.60;;;2.80;;
13218;SDS011;6674;49.152;11.918;2024-02-21T09:41:50;5.33;;;2.70;;
13218;SDS011;6674;49.152;11.918;2024-02-21T09:44:18;5.00;;;2.70;;
13218;SDS011;6674;49.152;11.918;2024-02-21T09:46:48;4.40;;;2.43;;
13218;SDS011;6674;49.152;11.918;2024-02-21T09:49:21;4.00;;;2.17;;
13218;SDS011;6674;49.152;11.918;2024-02-21T09:51:50;5.90;;;2.73;;
13218;SDS011;6674;49.152;11.918;2024-02-21T09:54:18;4.00;;;2.40;;
13218;SDS011;6674;49.152;11.918;2024-02-21T09:56:45;5.03;;;2.60;;
13218;SDS011;6674;49.152;11.918;2024-02-21T09:59:12;3.90;;;2.10;;
13218;SDS011;6674;49.152;11.918;2024-02-21T10:01:39;8.90;;;2.30;;
13218;SDS011;6674;49.152;11.918;2024-02-21T10:04:07;4.73;;;2.40;;
13218;SDS011;6674;49.152;11.918;2024-02-21T10:06:34;4.70;;;2.30;;
13218;SDS011;6674;49.152;11.918;2024-02-21T10:09:03;4.63;;;2.60;;
13218;SDS011;6674;49.152;11.918;2024-02-21T10:11:30;6.00;;;2.57;;
13218;SDS011;6674;49.152;11.918;2024-02-21T10:14:03;4.20;;;2.20;;
13218;SDS011;6674;49.152;11.918;2024-02-21T10:16:30;4.70;;;2.50;;
13218;SDS011;6674;49.152;11.918;2024-02-21T10:18:57;5.57;;;2.40;;
13218;SDS011;6674;49.152;11.918;2024-02-21T10:21:23;7.10;;;2.53;;
13218;SDS011;6674;49.152;11.918;2024-02-21T10:23:50;5.93;;;2.30;;
13218;SDS011;6674;49.152;11.918;2024-02-21T10:26:18;4.23;;;2.10;;
13218;SDS011;6674;49.152;11.918;2024-02-21T10:28:45;5.17;;;2.07;;
13218;SDS011;6674;49.152;11.918;2024-02-21T10:31:20;4.57;;;2.00;;
13218;SDS011;6674;49.152;11.918;2024-02-21T10:33:53;4.63;;;2.20;;
13218;SDS011;6674;49.152;11.918;2024-02-21T10:36:19;3.77;;;2.40;;
13218;SDS011;6674;49.152;11.918;2024-02-21T10:38:46;5.70;;;2.30;;
13218;SDS011;6674;49.152;11.918;2024-02-21T10:41:13;3.93;;;2.03;;
13218;SDS011;6674;49.152;11.918;2024-02-21T10:43:41;5.50;;;2.20;;
13218;SDS011;6674;49.152;11.918;2024-02-21T10:46:10;5.17;;;2.03;;
13218;SDS011;6674;49.152;11.918;2024-02-21T10:48:43;5.83;;;1.93;;
13218;SDS011;6674;49.152;11.918;2024-02-21T10:51:14;2.90;;;1.70;;
13218;SDS011;6674;49.152;11.918;2024-02-21T10:53:43;4.20;;;2.10;;
13218;SDS011;6674;49.152;11.918;2024-02-21T10:56:16;5.73;;;2.20;;
13218;SDS011;6674;49.152;11.918;2024-02-21T10:58:46;3.93;;;2.10;;
13218;SDS011;6674;49.152;11.918;2024-02-21T11:01:14;2.93;;;1.60;;
13218;SDS011;6674;49.152;11.918;2024-02-21T11:03:42;4.87;;;2.20;;
13218;SDS011;6674;49.152;11.918;2024-02-21T11:06:09;4.33;;;2.20;;
13218;SDS011;6674;49.152;11.918;2024-02-21T11:08:36;4.30;;;2.07;;
13218;SDS011;6674;49.152;11.918;2024-02-21T11:11:04;4.27;;;1.90;;
13218;SDS011;6674;49.152;11.918;2024-02-21T11:13:31;4.57;;;1.87;;
13218;SDS011;6674;49.152;11.918;2024-02-21T11:16:07;4.20;;;1.93;;
13218;SDS011;6674;49.152;11.918;2024-02-21T11:18:34;3.20;;;1.93;;
13218;SDS011;6674;49.152;11.918;2024-02-21T11:21:00;7.00;;;2.17;;
13218;SDS011;6674;49.152;11.918;2024-02-21T11:23:28;5.53;;;1.77;;
13218;SDS011;6674;49.152;11.918;2024-02-21T11:26:03;5.17;;;2.47;;
13218;SDS011;6674;49.152;11.918;2024-02-21T11:28:29;6.47;;;1.87;;
13218;SDS011;6674;49.152;11.918;2024-02-21T11:31:04;3.50;;;1.53;;
13218;SDS011;6674;49.152;11.918;2024-02-21T11:33:32;3.83;;;1.77;;
13218;SDS011;6674;49.152;11.918;2024-02-21T11:35:59;2.40;;;1.40;;
13218;SDS011;6674;49.152;11.918;2024-02-21T11:38:26;2.83;;;1.70;;
13218;SDS011;6674;49.152;11.918;2024-02-21T11:40:53;2.67;;;1.67;;
13218;SDS011;6674;49.152;11.918;2024-02-21T11:43:20;2.47;;;1.60;;
13218;SDS011;6674;49.152;11.918;2024-02-21T11:45:47;4.03;;;1.90;;
13218;SDS011;6674;49.152;11.918;2024-02-21T11:48:14;2.40;;;1.40;;
13218;SDS011;6674;49.152;11.918;2024-02-21T11:50:43;2.73;;;1.50;;
13218;SDS011;6674;49.152;11.918;2024-02-21T11:53:18;3.40;;;1.50;;
13218;SDS011;6674;49.152;11.918;2024-02-21T11:55:46;3.83;;;1.77;;
13218;SDS011;6674;49.152;11.918;2024-02-21T11:58:12;4.10;;;1.53;;
13218;SDS011;6674;49.152;11.918;2024-02-21T12:00:38;3.67;;;1.70;;
13218;SDS011;6674;49.152;11.918;2024-02-21T12:03:05;4.97;;;1.77;;
13218;SDS011;6674;49.152;11.918;2024-02-21T12:05:32;2.47;;;1.40;;
13218;SDS011;6674;49.152;11.918;2024-02-21T12:07:59;4.60;;;1.50;;
13218;SDS011;6674;49.152;11.918;2024-02-21T12:10:26;3.97;;;1.50;;
13218;SDS011;6674;49.152;11.918;2024-02-21T12:13:04;1.73;;;1.30;;
13218;SDS011;6674;49.152;11.918;2024-02-21T12:15:31;4.17;;;1.87;;
13218;SDS011;6674;49.152;11.918;2024-02-21T12:17:57;3.50;;;1.23;;
13218;SDS011;6674;49.152;11.918;2024-02-21T12:20:25;2.37;;;1.30;;
13218;SDS011;6674;49.152;11.918;2024-02-21T12:22:51;1.93;;;1.30;;
13218;SDS011;6674;49.152;11.918;2024-02-21T12:25:21;2.67;;;1.20;;
13218;SDS011;6674;49.152;11.918;2024-02-21T12:27:48;3.23;;;1.57;;
13218;SDS011;6674;49.152;11.918;2024-02-21T12:30:15;2.20;;;1.50;;
13218;SDS011;6674;49.152;11.918;2024-02-21T12:32:42;2.17;;;1.63;;
13218;SDS011;6674;49.152;11.918;2024-02-21T12:35:08;3.03;;;1.30;;
13218;SDS011;6674;49.152;11.918;2024-02-21T12:37:35;2.50;;;1.50;;
13218;SDS011;6674;49.152;11.918;2024-02-21T12:40:03;2.23;;;1.53;;
13218;SDS011;6674;49.152;11.918;2024-02-21T12:42:33;5.03;;;1.70;;
13218;SDS011;6674;49.152;11.918;2024-02-21T12:44:59;2.63;;;1.20;;
13218;SDS011;6674;49.152;11.918;2024-02-21T12:47:26;2.07;;;1.20;;
13218;SDS011;6674;49.152;11.918;2024-02-21T12:49:52;2.40;;;1.37;;
13218;SDS011;6674;49.152;11.918;2024-02-21T12:52:18;2.40;;;1.40;;
13218;SDS011;6674;49.152;11.918;2024-02-21T12:54:45;4.33;;;1.50;;
13218;SDS011;6674;49.152;11.918;2024-02-21T12:57:12;1.50;;;1.30;;
13218;SDS011;6674;49.152;11.918;2024-02-21T12:59:41;1.40;;;1.30;;
13218;SDS011;6674;49.152;11.918;2024-02-21T13:02:07;3.27;;;1.70;;
13218;SDS011;6674;49.152;11.918;2024-02-21T13:04:35;2.47;;;1.20;;
13218;SDS011;6674;49.152;11.918;2024-02-21T13:07:01;4.30;;;1.47;;
13218;SDS011;6674;49.152;11.918;2024-02-21T13:09:28;2.93;;;1.50;;
13218;SDS011;6674;49.152;11.918;2024-02-21T13:11:55;3.90;;;1.77;;
13218;SDS011;6674;49.152;11.918;2024-02-21T13:14:21;2.80;;;1.30;;
13218;SDS011;6674;49.152;11.918;2024-02-21T13:16:50;3.07;;;1.37;;
13218;SDS011;6674;49.152;11.918;2024-02-21T13:19:15;2.07;;;1.50;;
13218;SDS011;6674;49.152;11.918;2024-02-21T13:21:42;2.70;;;1.30;;
13218;SDS011;6674;49.152;11.918;2024-02-21T13:24:09;4.67;;;1.70;;
13218;SDS011;6674;49.152;11.918;2024-02-21T13:26:35;4.20;;;2.00;;
13218;SDS011;6674;49.152;11.918;2024-02-21T13:29:01;3.63;;;1.53;;
13218;SDS011;6674;49.152;11.918;2024-02-21T13:31:28;2.20;;;1.50;;
13218;SDS011;6674;49.152;11.918;2024-02-21T13:33:56;2.03;;;1.73;;
13218;SDS011;6674;49.152;11.918;2024-02-21T13:36:22;4.90;;;1.47;;
13218;SDS011;6674;49.152;11.918;2024-02-21T13:38:49;2.67;;;1.90;;
13218;SDS011;6674;49.152;11.918;2024-02-21T13:41:16;3.00;;;2.00;;
13218;SDS011;6674;49.152;11.918;2024-02-21T13:43:43;2.90;;;1.50;;
13218;SDS011;6674;49.152;11.918;2024-02-21T13:46:11;2.77;;;1.60;;
13218;SDS011;6674;49.152;11.918;2024-02-21T13:48:38;3.20;;;1.70;;
13218;SDS011;6674;49.152;11.918;2024-02-21T13:51:05;1.93;;;1.33;;
13218;SDS011;6674;49.152;11.918;2024-02-21T13:53:32;3.93;;;1.90;;
13218;SDS011;6674;49.152;11.918;2024-02-21T13:55:59;3.43;;;2.30;;
13218;SDS011;6674;49.152;11.918;2024-02-21T13:58:26;3.47;;;2.00;;
13218;SDS011;6674;49.152;11.918;2024-02-21T14:00:52;2.30;;;1.97;;
13218;SDS011;6674;49.152;11.918;2024-02-21T14:03:19;5.53;;;2.20;;
13218;SDS011;6674;49.152;11.918;2024-02-21T14:05:46;3.07;;;1.90;;
13218;SDS011;6674;49.152;11.918;2024-02-21T14:08:15;3.47;;;1.93;;
13218;SDS011;6674;49.152;11.918;2024-02-21T14:10:41;3.30;;;1.90;;
13218;SDS011;6674;49.152;11.918;2024-02-21T14:13:08;3.50;;;1.80;;
13218;SDS011;6674;49.152;11.918;2024-02-21T14:15:34;2.50;;;1.30;;
13218;SDS011;6674;49.152;11.918;2024-02-21T14:18:02;3.57;;;2.30;;
13218;SDS011;6674;49.152;11.918;2024-02-21T14:20:30;4.60;;;1.97;;
13218;SDS011;6674;49.152;11.918;2024-02-21T14:22:57;3.23;;;1.83;;
13218;SDS011;6674;49.152;11.918;2024-02-21T14:25:25;2.97;;;2.03;;
13218;SDS011;6674;49.152;11.918;2024-02-21T14:27:51;5.20;;;2.20;;
13218;SDS011;6674;49.152;11.918;2024-02-21T14:30:17;3.20;;;1.97;;
13218;SDS011;6674;49.152;11.918;2024-02-21T14:32:44;5.30;;;2.17;;
13218;SDS011;6674;49.152;11.918;2024-02-21T14:35:10;2.93;;;1.87;;
13218;SDS011;6674;49.152;11.918;2024-02-21T14:37:37;4.53;;;1.80;;
13218;SDS011;6674;49.152;11.918;2024-02-21T14:40:03;2.77;;;1.67;;
13218;SDS011;6674;49.152;11.918;2024-02-21T14:42:32;3.63;;;1.77;;
13218;SDS011;6674;49.152;11.918;2024-02-21T14:44:59;4.47;;;1.97;;
13218;SDS011;6674;49.152;11.918;2024-02-21T14:47:29;3.03;;;1.53;;